Time;durP1;ratioP1;P1;durP2;ratioP2;P2;SDS_P1;SDS_P2;PMS_P1;PMS_P2;Temp;Humidity;BMP_temperature;BMP_pressure;BME280_temperature;BME280_humidity;BME280_pressure;Samples;Min_cycle;Max_cycle;Signal;HPM_P1;HPM_P2
2022/05/21 00:00:29;;;;;;;6.87;5.43;;;;;;;17.13;100.00;97149.56;4967246;28;20237;-54
2022/05/21 00:02:58;;;;;;;4.80;4.50;;;;;;;17.07;100.00;97142.44;4950913;28;20296;-57
2022/05/21 00:05:29;;;;;;;4.37;4.07;;;;;;;17.02;100.00;97152.97;4929621;28;20956;-56
2022/05/21 00:07:57;;;;;;;5.87;4.63;;;;;;;17.02;100.00;97153.81;4952142;28;20300;-56
2022/05/21 00:10:29;;;;;;;5.63;4.83;;;;;;;16.98;100.00;97157.16;4969760;28;20316;-53
2022/05/21 00:12:58;;;;;;;6.30;5.20;;;;;;;16.95;100.00;97161.09;4952024;28;20309;-59
2022/05/21 00:15:29;;;;;;;6.17;4.30;;;;;;;16.88;100.00;97158.47;4963826;28;20822;-51
2022/05/21 00:17:58;;;;;;;9.70;4.60;;;;;;;16.86;100.00;97159.75;4949068;28;20211;-58
2022/05/21 00:23:14;;;;;;;4.87;4.00;;;;;;;16.85;100.00;97166.97;4928045;28;20202;-55
2022/05/21 00:25:45;;;;;;;4.37;3.97;;;;;;;16.85;100.00;97184.84;4972995;28;20491;-58
2022/05/21 00:28:13;;;;;;;4.10;3.70;;;;;;;16.80;100.00;97174.84;4955768;28;20209;-56
2022/05/21 00:30:41;;;;;;;4.43;3.80;;;;;;;16.68;100.00;97173.97;4968445;28;20206;-57
2022/05/21 00:33:10;;;;;;;3.93;3.63;;;;;;;16.59;100.00;97178.78;4950125;28;20515;-54
2022/05/21 00:35:38;;;;;;;3.67;3.47;;;;;;;16.56;100.00;97184.59;4967728;28;20340;-54
2022/05/21 00:38:07;;;;;;;3.43;3.23;;;;;;;16.56;100.00;97189.94;4913465;28;20210;-56
2022/05/21 00:40:35;;;;;;;5.57;2.97;;;;;;;16.58;100.00;97183.31;4974596;28;20673;-52
2022/05/21 00:43:05;;;;;;;4.97;3.47;;;;;;;16.42;100.00;97184.72;4950728;28;20329;-55
2022/05/21 00:45:34;;;;;;;3.57;3.27;;;;;;;16.37;100.00;97199.81;4969976;28;20233;-52
2022/05/21 00:48:02;;;;;;;3.30;3.10;;;;;;;16.31;100.00;97194.31;4941781;28;20741;-52
2022/05/21 00:50:30;;;;;;;3.43;3.20;;;;;;;16.30;100.00;97205.19;4971245;28;20963;-49
2022/05/21 00:53:00;;;;;;;3.47;3.17;;;;;;;16.18;100.00;97197.09;4930525;28;20264;-59
2022/05/21 00:55:31;;;;;;;3.63;3.33;;;;;;;16.10;100.00;97197.38;4961859;28;20466;-57
2022/05/21 01:00:50;;;;;;;3.53;3.20;;;;;;;16.02;100.00;97199.28;4972007;28;20211;-58
2022/05/21 01:03:18;;;;;;;3.20;3.00;;;;;;;15.95;100.00;97211.06;4971867;28;20640;-57
2022/05/21 01:05:48;;;;;;;5.37;2.87;;;;;;;15.89;100.00;97212.72;4956828;28;20684;-55
2022/05/21 01:08:17;;;;;;;3.27;2.97;;;;;;;15.91;100.00;97214.16;4927846;28;20219;-56
2022/05/21 01:10:49;;;;;;;3.10;2.90;;;;;;;15.84;100.00;97215.22;4958337;28;20384;-57
2022/05/21 01:13:20;;;;;;;3.67;3.47;;;;;;;15.86;100.00;97213.97;4956574;28;20206;-57
2022/05/21 01:15:53;;;;;;;3.53;3.13;;;;;;;15.82;100.00;97210.09;4969466;28;20261;-56
2022/05/21 01:18:21;;;;;;;3.60;3.30;;;;;;;15.84;100.00;97201.84;4972364;28;20460;-55
2022/05/21 01:20:54;;;;;;;4.70;3.37;;;;;;;15.99;100.00;97202.41;4955733;28;20214;-55
2022/05/21 01:23:24;;;;;;;3.70;3.37;;;;;;;15.95;100.00;97211.88;4928746;28;20581;-54
2022/05/21 01:25:53;;;;;;;3.60;3.30;;;;;;;15.89;100.00;97210.91;4961824;28;20316;-55
2022/05/21 01:28:22;;;;;;;3.63;3.33;;;;;;;15.99;100.00;97214.91;4952777;28;20309;-56
2022/05/21 01:30:52;;;;;;;5.07;3.37;;;;;;;15.96;100.00;97215.38;4973054;28;20660;-55
2022/05/21 01:33:23;;;;;;;4.63;3.50;;;;;;;15.91;100.00;97216.03;4969110;28;20216;-52
2022/05/21 01:35:51;;;;;;;3.83;3.53;;;;;;;15.83;100.00;97221.59;4954574;28;20233;-54
2022/05/21 01:38:22;;;;;;;4.60;3.40;;;;;;;15.76;100.00;97224.31;4927203;28;20576;-55
2022/05/21 01:40:52;;;;;;;4.27;3.87;;;;;;;15.62;100.00;97227.06;4974226;28;20306;-58
2022/05/21 01:46:05;;;;;;;3.73;3.43;;;;;;;15.45;100.00;97226.75;4966388;28;20746;-52
2022/05/21 01:48:34;;;;;;;4.00;3.70;;;;;;;15.37;100.00;97229.69;4969597;28;20224;-58
2022/05/21 01:51:06;;;;;;;3.67;3.37;;;;;;;15.36;100.00;97220.03;4954112;28;20241;-57
2022/05/21 01:53:36;;;;;;;3.50;3.30;;;;;;;15.54;100.00;97234.53;4930854;28;20241;-52
2022/05/21 01:56:07;;;;;;;5.70;3.50;;;;;;;15.51;100.00;97230.44;4955214;28;20910;-54
2022/05/21 01:58:35;;;;;;;5.43;5.00;;;;;;;15.46;100.00;97238.28;4972604;28;20763;-54
2022/05/21 02:01:04;;;;;;;4.37;3.97;;;;;;;15.41;100.00;97240.75;4953709;28;20546;-54
2022/05/21 02:03:33;;;;;;;3.13;2.93;;;;;;;15.36;100.00;97241.41;4968682;28;20696;-55
2022/05/21 02:06:01;;;;;;;3.43;3.10;;;;;;;15.32;100.00;97246.31;4966094;28;20241;-53
2022/05/21 02:08:29;;;;;;;3.00;2.80;;;;;;;15.30;100.00;97251.06;4957283;28;20220;-52
2022/05/21 02:10:57;;;;;;;4.57;2.93;;;;;;;15.21;100.00;97247.00;4931082;28;20664;-57
2022/05/21 02:13:28;;;;;;;4.17;3.67;;;;;;;15.17;100.00;97253.81;4958173;28;20296;-51
2022/05/21 02:15:57;;;;;;;4.07;3.67;;;;;;;15.25;100.00;97271.44;4951863;28;20321;-55
2022/05/21 02:18:25;;;;;;;3.67;3.37;;;;;;;15.26;100.00;97260.53;4969176;28;20273;-52
2022/05/21 02:20:54;;;;;;;3.27;3.00;;;;;;;15.17;100.00;97261.81;4968474;28;20206;-57
2022/05/21 02:27:04;;;;;;;3.20;3.00;;;;;;;15.00;100.00;97259.63;4964108;28;20482;-54
2022/05/21 02:29:33;;;;;;;3.57;3.27;;;;;;;14.97;100.00;97269.88;4935486;28;20635;-58
2022/05/21 02:32:02;;;;;;;3.50;3.20;;;;;;;14.90;100.00;97277.91;4965632;28;20202;-53
2022/05/21 02:34:30;;;;;;;5.13;3.83;;;;;;;14.88;100.00;97286.13;4971126;28;20686;-56
2022/05/21 02:39:44;;;;;;;3.43;3.23;;;;;;;14.87;100.00;97284.47;4959282;28;20300;-58
2022/05/21 02:44:56;;;;;;;3.03;2.93;;;;;;;14.84;100.00;97294.75;4950189;28;20261;-55
2022/05/21 02:47:25;;;;;;;3.60;3.33;;;;;;;14.66;100.00;97292.69;4967952;28;20228;-54
2022/05/21 02:49:53;;;;;;;3.57;3.37;;;;;;;14.61;100.00;97290.66;4966754;28;20671;-57
2022/05/21 02:52:22;;;;;;;3.70;3.40;;;;;;;14.54;100.00;97296.00;4949676;28;20245;-52
2022/05/21 02:54:50;;;;;;;3.50;3.30;;;;;;;14.58;100.00;97293.72;4942742;28;20235;-57
2022/05/21 02:57:18;;;;;;;5.73;3.90;;;;;;;14.74;100.00;97297.84;4922959;28;20240;-57
2022/05/21 02:59:49;;;;;;;4.13;3.33;;;;;;;14.80;100.00;97307.69;4920879;28;20247;-56
2022/05/21 03:02:18;;;;;;;4.27;3.37;;;;;;;14.87;100.00;97315.66;4964651;28;20530;-60
2022/05/21 03:04:47;;;;;;;3.43;3.23;;;;;;;14.88;100.00;97315.47;4964841;28;20634;-56
2022/05/21 03:07:15;;;;;;;3.77;3.57;;;;;;;14.84;100.00;97322.25;4942990;28;20947;-54
2022/05/21 03:12:29;;;;;;;4.47;3.90;;;;;;;14.63;100.00;97325.94;4924573;28;20424;-59
2022/05/21 03:14:58;;;;;;;5.03;3.93;;;;;;;14.55;100.00;97331.47;4955361;28;20721;-57
2022/05/21 03:17:28;;;;;;;4.03;3.63;;;;;;;14.47;100.00;97329.84;4939659;28;20209;-58
2022/05/21 03:19:56;;;;;;;4.17;3.87;;;;;;;14.39;100.00;97341.53;4964137;28;20593;-56
2022/05/21 03:22:25;;;;;;;3.97;3.57;;;;;;;14.27;100.00;97346.63;4947022;28;20660;-59
2022/05/21 03:24:53;;;;;;;3.90;3.70;;;;;;;14.19;100.00;97344.16;4946108;28;20451;-60
2022/05/21 03:27:21;;;;;;;4.40;4.10;;;;;;;14.10;100.00;97354.19;4923253;28;20217;-55
2022/05/21 03:29:49;;;;;;;3.90;3.60;;;;;;;14.01;100.00;97358.88;4964746;28;20301;-58
2022/05/21 03:32:17;;;;;;;3.53;3.33;;;;;;;13.94;100.00;97360.72;4951138;28;20210;-57
2022/05/21 03:34:47;;;;;;;3.93;3.73;;;;;;;13.94;100.00;97375.88;4964100;28;20420;-55
2022/05/21 03:37:15;;;;;;;3.40;3.13;;;;;;;13.85;100.00;97367.25;4947152;28;20214;-56
2022/05/21 03:39:43;;;;;;;4.70;4.30;;;;;;;13.70;100.00;97373.56;4947247;28;20206;-54
2022/05/21 03:42:11;;;;;;;4.00;3.70;;;;;;;13.59;100.00;97390.94;4922052;28;20700;-56
2022/05/21 03:44:39;;;;;;;3.43;3.23;;;;;;;13.61;100.00;97385.38;4967295;28;20725;-58
2022/05/21 03:47:08;;;;;;;4.73;4.13;;;;;;;13.48;100.00;97385.34;4950495;28;20399;-57
2022/05/21 03:49:36;;;;;;;4.17;3.77;;;;;;;13.29;100.00;97391.16;4957310;28;20328;-57
2022/05/21 03:52:07;;;;;;;3.93;3.73;;;;;;;13.22;100.00;97389.47;4963263;28;20218;-59
2022/05/21 03:54:36;;;;;;;4.57;4.17;;;;;;;13.19;100.00;97398.66;4927555;28;20632;-58
2022/05/21 03:57:05;;;;;;;5.53;4.53;;;;;;;13.20;100.00;97402.13;4893407;28;20214;-59
2022/05/21 03:59:34;;;;;;;3.73;3.53;;;;;;;13.17;100.00;97403.38;4965355;28;20308;-53
2022/05/21 04:02:02;;;;;;;4.97;4.57;;;;;;;13.25;100.00;97410.34;4948156;28;20535;-59
2022/05/21 04:04:31;;;;;;;4.73;3.83;;;;;;;13.31;100.00;97421.03;4965499;28;20700;-57
2022/05/21 04:06:59;;;;;;;4.40;3.87;;;;;;;13.32;100.00;97413.91;4964886;28;20296;-56
2022/05/21 04:09:29;;;;;;;4.33;3.90;;;;;;;13.36;100.00;97416.97;4942328;28;20220;-54
2022/05/21 04:11:57;;;;;;;4.20;4.00;;;;;;;13.38;100.00;97418.44;4942414;28;20735;-58
2022/05/21 04:14:27;;;;;;;4.17;3.87;;;;;;;13.33;100.00;97423.53;4921234;28;20583;-54
2022/05/21 04:16:56;;;;;;;4.67;4.27;;;;;;;13.29;100.00;97428.41;4951153;28;20476;-58
2022/05/21 04:19:25;;;;;;;4.20;3.97;;;;;;;13.21;100.00;97425.06;4972067;28;20207;-55
2022/05/21 04:21:53;;;;;;;4.23;3.93;;;;;;;13.14;100.00;97427.69;4963907;28;20206;-57
2022/05/21 04:24:21;;;;;;;4.47;4.00;;;;;;;13.14;100.00;97436.50;4972909;28;20201;-57
2022/05/21 04:26:52;;;;;;;4.80;4.50;;;;;;;13.15;100.00;97438.13;4944223;28;20351;-57
2022/05/21 04:29:21;;;;;;;4.53;4.10;;;;;;;13.14;100.00;97430.38;4905722;28;20228;-57
2022/05/21 04:31:49;;;;;;;5.03;3.83;;;;;;;13.20;100.00;97434.91;4967469;28;20874;-56
2022/05/21 04:34:17;;;;;;;4.50;4.10;;;;;;;13.30;100.00;97439.88;4950797;28;20229;-54
2022/05/21 04:36:45;;;;;;;4.67;4.17;;;;;;;13.28;100.00;97445.38;4964622;28;20431;-54
2022/05/21 04:39:13;;;;;;;5.00;4.43;;;;;;;13.22;100.00;97448.81;4970037;28;20304;-53
2022/05/21 04:41:41;;;;;;;5.33;4.90;;;;;;;13.15;100.00;97447.97;4949101;28;20638;-56
2022/05/21 04:44:11;;;;;;;4.33;4.10;;;;;;;13.19;100.00;97451.88;4954035;28;20232;-55
2022/05/21 04:46:39;;;;;;;5.00;4.00;;;;;;;13.38;100.00;97454.84;4919824;28;20649;-54
2022/05/21 04:49:07;;;;;;;4.17;3.97;;;;;;;13.48;100.00;97466.03;4957000;28;20213;-58
2022/05/21 04:51:37;;;;;;;4.40;4.10;;;;;;;13.59;100.00;97470.78;4966106;28;20324;-55
2022/05/21 04:54:06;;;;;;;4.57;4.17;;;;;;;13.84;100.00;97472.13;4969211;28;20312;-57
2022/05/21 04:56:35;;;;;;;4.57;4.27;;;;;;;13.89;100.00;97475.88;4918289;28;20546;-58
2022/05/21 04:59:07;;;;;;;5.83;5.43;;;;;;;13.75;100.00;97477.63;4950780;28;20337;-58
2022/05/21 05:01:38;;;;;;;3.93;3.73;;;;;;;13.89;100.00;97473.19;4927017;28;20662;-55
2022/05/21 05:04:07;;;;;;;4.07;3.70;;;;;;;13.92;100.00;97476.47;4970787;28;20217;-57
2022/05/21 05:06:36;;;;;;;4.13;3.93;;;;;;;13.80;100.00;97466.38;4942044;28;20687;-52
2022/05/21 05:09:04;;;;;;;3.90;3.60;;;;;;;13.80;100.00;97477.03;4965525;28;20210;-57
2022/05/21 05:11:33;;;;;;;4.13;3.70;;;;;;;13.99;100.00;97482.66;4941461;28;20535;-54
2022/05/21 05:14:01;;;;;;;3.90;3.63;;;;;;;13.93;100.00;97478.13;4950296;28;20213;-56
2022/05/21 05:16:29;;;;;;;4.03;3.77;;;;;;;13.99;100.00;97477.31;4922210;28;20429;-54
2022/05/21 05:18:59;;;;;;;3.83;3.63;;;;;;;13.96;100.00;97481.19;4971628;28;20210;-54
2022/05/21 05:21:27;;;;;;;4.37;3.40;;;;;;;14.08;100.00;97478.78;4945953;28;20233;-56
2022/05/21 05:23:55;;;;;;;3.40;3.30;;;;;;;13.91;100.00;97493.47;4969603;28;20210;-55
2022/05/21 05:26:23;;;;;;;3.50;3.30;;;;;;;13.99;100.00;97487.97;4945187;28;21236;-56
2022/05/21 05:28:52;;;;;;;3.47;3.20;;;;;;;13.77;100.00;97490.72;4942595;28;20304;-51
2022/05/21 05:31:20;;;;;;;3.70;3.50;;;;;;;13.81;100.00;97499.16;4940700;28;20288;-57
2022/05/21 05:33:50;;;;;;;3.43;3.23;;;;;;;13.77;100.00;97498.72;4963744;28;20303;-54
2022/05/21 05:36:20;;;;;;;3.37;3.10;;;;;;;13.92;100.00;97489.81;4946448;28;20313;-53
2022/05/21 05:38:48;;;;;;;3.72;3.42;;;;;;;14.12;100.00;97497.88;4962694;28;20461;-54
2022/05/21 05:41:16;;;;;;;3.85;2.90;;;;;;;14.13;100.00;97497.66;4958305;28;20551;-57
2022/05/21 05:43:53;;;;;;;2.93;2.73;;;;;;;14.17;100.00;97493.56;4963117;28;20264;-52
2022/05/21 05:46:21;;;;;;;3.20;2.90;;;;;;;14.09;100.00;97496.41;4949137;28;20398;-55
2022/05/21 05:48:49;;;;;;;2.40;2.30;;;;;;;14.18;100.00;97497.06;4927641;28;20210;-52
2022/05/21 05:51:17;;;;;;;2.70;2.60;;;;;;;14.17;100.00;97495.44;4964453;28;20230;-57
2022/05/21 05:53:48;;;;;;;3.70;2.63;;;;;;;14.32;100.00;97496.09;4956054;28;20526;-58
2022/05/21 05:56:17;;;;;;;2.73;2.63;;;;;;;14.46;100.00;97494.28;4964579;28;20332;-57
2022/05/21 06:01:32;;;;;;;2.60;2.50;;;;;;;14.43;100.00;97500.03;4943168;28;20248;-57
2022/05/21 06:04:01;;;;;;;3.03;2.73;;;;;;;14.44;100.00;97507.00;4925092;28;20225;-56
2022/05/21 06:06:31;;;;;;;2.67;2.50;;;;;;;14.73;100.00;97502.38;4946991;28;20226;-53
2022/05/21 06:09:00;;;;;;;3.00;2.63;;;;;;;14.58;100.00;97491.84;4966338;28;20210;-57
2022/05/21 06:11:32;;;;;;;3.20;3.00;;;;;;;15.10;100.00;97499.31;4940900;28;20505;-55
2022/05/21 06:14:01;;;;;;;2.63;2.50;;;;;;;15.69;100.00;97507.50;4970169;28;20236;-54
2022/05/21 06:16:29;;;;;;;2.60;2.50;;;;;;;15.60;100.00;97509.56;4942969;28;20659;-58
2022/05/21 06:18:57;;;;;;;3.20;2.90;;;;;;;15.52;100.00;97516.94;4922063;28;20272;-55
2022/05/21 06:21:25;;;;;;;2.70;2.47;;;;;;;15.22;100.00;97518.22;4970341;28;20297;-57
2022/05/21 06:23:54;;;;;;;2.40;2.30;;;;;;;15.83;100.00;97510.13;4949789;28;20490;-59
2022/05/21 06:26:23;;;;;;;2.53;2.33;;;;;;;16.31;100.00;97506.28;4954465;28;20284;-55
2022/05/21 06:28:52;;;;;;;2.90;2.47;;;;;;;16.48;100.00;97518.13;4968008;28;20222;-58
2022/05/21 06:31:20;;;;;;;3.50;2.40;;;;;;;16.52;100.00;97523.06;4967804;28;20312;-56
2022/05/21 06:33:49;;;;;;;1.87;1.80;;;;;;;16.17;100.00;97521.56;4951029;28;20226;-54
2022/05/21 06:36:18;;;;;;;2.07;1.97;;;;;;;16.09;100.00;97521.78;4929202;28;20261;-56
2022/05/21 06:38:46;;;;;;;2.10;2.00;;;;;;;15.74;100.00;97525.56;4959432;28;20585;-57
2022/05/21 06:41:14;;;;;;;2.37;1.73;;;;;;;15.80;100.00;97527.41;4966226;28;20297;-60
2022/05/21 06:43:49;;;;;;;2.00;1.90;;;;;;;15.72;100.00;97524.94;4963964;28;20418;-59
2022/05/21 06:46:18;;;;;;;2.00;1.90;;;;;;;15.66;100.00;97525.75;4970697;28;20257;-56
2022/05/21 06:48:46;;;;;;;1.93;1.73;;;;;;;15.63;100.00;97533.16;4953487;28;20660;-56
2022/05/21 06:51:14;;;;;;;2.57;2.37;;;;;;;15.54;100.00;97526.41;4929549;28;20365;-55
2022/05/21 06:53:43;;;;;;;2.00;1.90;;;;;;;15.56;100.00;97531.56;4958889;28;20992;-56
2022/05/21 06:56:14;;;;;;;1.90;1.80;;;;;;;15.44;100.00;97536.69;4971604;28;20325;-56
2022/05/21 06:58:43;;;;;;;1.70;1.57;;;;;;;15.33;100.00;97533.59;4949888;28;20300;-53
2022/05/21 07:01:13;;;;;;;1.60;1.50;;;;;;;15.58;100.00;97534.84;4967024;28;20234;-54
2022/05/21 07:03:41;;;;;;;1.97;1.87;;;;;;;15.69;100.00;97525.34;4968103;28;20565;-58
2022/05/21 07:08:55;;;;;;;2.00;1.90;;;;;;;15.76;100.00;97534.19;4972270;28;20233;-56
2022/05/21 07:11:23;;;;;;;2.03;1.93;;;;;;;15.83;100.00;97535.00;4951809;28;20218;-57
2022/05/21 07:13:52;;;;;;;2.37;1.90;;;;;;;15.80;100.00;97550.59;4953296;28;20244;-56
2022/05/21 07:16:21;;;;;;;1.83;1.63;;;;;;;15.74;100.00;97550.41;4966723;28;20271;-55
2022/05/21 07:18:49;;;;;;;1.70;1.70;;;;;;;15.60;100.00;97544.28;4970252;28;20499;-59
2022/05/21 07:21:18;;;;;;;2.00;1.80;;;;;;;15.74;100.00;97547.75;4954699;28;20309;-56
2022/05/21 07:23:47;;;;;;;1.80;1.70;;;;;;;15.94;100.00;97538.06;4927473;28;20296;-57
2022/05/21 07:26:16;;;;;;;2.70;1.60;;;;;;;16.69;100.00;97545.59;4953942;28;20738;-55
2022/05/21 07:28:44;;;;;;;1.97;1.83;;;;;;;16.27;100.00;97545.16;4953423;28;20552;-56
2022/05/21 07:31:12;;;;;;;1.30;1.30;;;;;;;16.38;100.00;97547.16;4970521;28;20669;-56
2022/05/21 07:33:42;;;;;;;1.90;1.80;;;;;;;16.23;100.00;97547.44;4966561;28;20375;-59
2022/05/21 07:36:10;;;;;;;1.70;1.60;;;;;;;16.61;100.00;97546.66;4955679;28;20697;-55
2022/05/21 07:38:38;;;;;;;1.77;1.67;;;;;;;16.73;100.00;97535.28;4928431;28;22211;-53
2022/05/21 07:41:07;;;;;;;1.57;1.57;;;;;;;16.82;100.00;97543.84;4977290;28;20311;-59
2022/05/21 07:43:35;;;;;;;2.00;1.80;;;;;;;16.49;100.00;97548.34;4952976;28;20277;-57
2022/05/21 07:46:04;;;;;;;1.50;1.50;;;;;;;16.20;100.00;97545.19;4954688;28;20233;-59
2022/05/21 07:48:32;;;;;;;4.80;1.80;;;;;;;16.43;100.00;97544.66;4964530;28;20320;-55
2022/05/21 07:51:08;;;;;;;2.63;2.07;;;;;;;17.12;93.62;97536.09;4968308;28;20225;-58
2022/05/21 07:53:39;;;;;;;1.70;1.50;;;;;;;17.03;97.51;97529.34;4950728;28;20407;-54
2022/05/21 07:56:11;;;;;;;1.93;1.83;;;;;;;16.58;99.74;97554.28;4934780;28;20403;-60
2022/05/21 07:58:40;;;;;;;2.50;1.30;;;;;;;16.59;100.00;97548.72;4956561;28;20808;-52
2022/05/21 08:01:08;;;;;;;1.93;1.50;;;;;;;16.90;95.37;97546.28;4948798;28;20215;-59
2022/05/21 08:03:42;;;;;;;1.77;1.67;;;;;;;17.12;100.00;97551.31;4967832;28;20224;-59
2022/05/21 08:06:11;;;;;;;1.53;1.53;;;;;;;16.93;96.70;97545.84;4968263;28;20268;-56
2022/05/21 08:08:39;;;;;;;1.33;1.33;;;;;;;16.86;100.00;97542.41;4953904;28;20226;-56
2022/05/21 08:11:08;;;;;;;1.57;1.50;;;;;;;16.82;100.00;97535.81;4934352;28;20217;-56
2022/05/21 08:13:36;;;;;;;1.93;1.83;;;;;;;16.77;100.00;97537.28;4952680;28;20715;-59
2022/05/21 08:16:05;;;;;;;3.50;1.73;;;;;;;16.82;100.00;97527.78;4948950;28;20809;-55
2022/05/21 08:18:34;;;;;;;1.87;1.60;;;;;;;17.33;98.18;97526.00;4963831;28;20946;-58
2022/05/21 08:21:02;;;;;;;1.40;1.40;;;;;;;16.88;99.34;97541.16;4967991;28;20241;-57
2022/05/21 08:29:04;;;;;;;3.43;2.13;;;;;;;17.86;92.80;97535.41;4952704;28;20209;-57
2022/05/21 08:31:32;;;;;;;2.97;2.77;;;;;;;17.74;93.20;97539.88;4947069;28;20210;-58
2022/05/21 08:34:01;;;;;;;4.67;1.63;;;;;;;17.29;95.25;97547.06;4964537;28;20221;-59
2022/05/21 08:36:29;;;;;;;2.33;1.33;;;;;;;17.03;99.44;97540.88;4965514;28;20249;-57
2022/05/21 08:38:59;;;;;;;1.60;1.50;;;;;;;17.09;97.59;97541.03;4951686;28;20308;-56
2022/05/21 08:41:29;;;;;;;1.63;1.53;;;;;;;17.44;95.29;97538.72;4927660;28;20214;-57
2022/05/21 08:44:02;;;;;;;1.90;1.60;;;;;;;17.36;96.29;97544.31;4961479;28;20295;-56
2022/05/21 08:46:42;;;;;;;1.80;1.70;;;;;;;17.49;97.00;97535.34;4946443;28;20539;-54
2022/05/21 08:49:20;;;;;;;1.43;1.43;;;;;;;17.78;87.03;97543.75;4969552;28;20216;-53
2022/05/21 08:51:52;;;;;;;1.47;1.37;;;;;;;18.22;88.09;97533.81;4966821;28;20327;-54
2022/05/21 08:54:25;;;;;;;2.17;1.30;;;;;;;18.55;85.25;97537.09;4921161;28;20310;-59
2022/05/21 08:56:55;;;;;;;1.40;1.30;;;;;;;18.72;85.84;97537.28;4890000;28;20321;-53
2022/05/21 08:59:26;;;;;;;2.50;1.50;;;;;;;18.36;80.18;97529.09;4910590;28;20432;-56
2022/05/21 09:01:54;;;;;;;1.97;1.40;;;;;;;18.29;84.58;97528.38;4933189;28;20739;-58
2022/05/21 09:04:27;;;;;;;1.17;1.07;;;;;;;18.36;83.82;97534.47;4916599;28;20598;-58
2022/05/21 09:06:59;;;;;;;2.63;1.30;;;;;;;18.06;89.19;97526.38;4931584;28;20241;-57
2022/05/21 09:09:39;;;;;;;2.97;1.70;;;;;;;17.71;90.33;97529.59;4933812;28;20432;-57
2022/05/21 09:12:13;;;;;;;1.20;1.20;;;;;;;17.24;93.90;97530.84;4903404;28;21337;-57
2022/05/21 09:14:44;;;;;;;1.80;1.70;;;;;;;17.72;87.56;97531.25;4917365;28;20239;-57
2022/05/21 09:17:13;;;;;;;1.30;1.30;;;;;;;17.49;90.08;97530.00;4923447;28;20637;-57
2022/05/21 09:19:44;;;;;;;1.70;1.60;;;;;;;17.35;92.84;97530.13;4930279;28;20221;-58
2022/05/21 09:22:15;;;;;;;1.50;1.50;;;;;;;17.53;90.10;97528.50;4933076;28;20207;-57
2022/05/21 09:25:17;;;;;;;1.90;1.10;;;;;;;18.12;90.40;97527.31;4930682;28;20631;-58
2022/05/21 09:27:49;;;;;;;1.90;1.80;;;;;;;18.22;85.01;97528.44;4900387;28;20640;-56
2022/05/21 09:30:23;;;;;;;1.60;1.50;;;;;;;18.40;83.07;97521.44;4912317;28;20234;-56
2022/05/21 09:32:56;;;;;;;1.70;1.70;;;;;;;18.34;79.11;97527.66;4935484;28;20211;-57
2022/05/21 09:35:26;;;;;;;1.60;1.50;;;;;;;18.18;80.11;97519.22;4915330;28;20379;-55
2022/05/21 09:37:55;;;;;;;3.97;1.40;;;;;;;18.35;81.18;97513.22;4929487;28;20291;-57
2022/05/21 09:40:34;;;;;;;1.33;1.30;;;;;;;18.38;81.68;97507.44;4929934;28;20208;-59
2022/05/21 09:45:50;;;;;;;1.50;1.50;;;;;;;18.58;80.61;97504.47;4920975;28;20231;-58
2022/05/21 09:48:21;;;;;;;1.60;1.60;;;;;;;19.16;73.32;97496.81;4928266;28;21025;-56
2022/05/21 09:50:52;;;;;;;2.47;1.67;;;;;;;19.35;68.88;97486.78;4916323;28;20743;-58
2022/05/21 09:53:24;;;;;;;1.90;1.50;;;;;;;19.01;77.76;97496.44;4953186;28;21834;-55
2022/05/21 09:56:03;;;;;;;1.23;1.23;;;;;;;19.07;73.99;97496.31;4972248;28;20834;-58
2022/05/21 09:58:34;;;;;;;1.80;1.70;;;;;;;19.00;76.00;97497.50;4959057;28;20212;-57
2022/05/21 10:01:02;;;;;;;1.93;1.80;;;;;;;18.74;75.72;97496.81;4922666;28;21244;-56
2022/05/21 10:03:43;;;;;;;1.40;1.40;;;;;;;18.77;76.61;97501.72;4969695;28;20284;-57
2022/05/21 10:06:19;;;;;;;2.40;1.63;;;;;;;18.69;73.28;97494.00;4954526;28;20229;-56
2022/05/21 10:11:43;;;;;;;1.63;1.53;;;;;;;18.86;69.15;97489.59;4969142;28;20748;-56
2022/05/21 10:14:17;;;;;;;1.50;1.40;;;;;;;19.06;72.72;97483.94;4954521;28;20221;-56
2022/05/21 10:16:47;;;;;;;1.57;1.57;;;;;;;19.18;74.86;97501.97;4925741;28;20587;-56
2022/05/21 10:19:20;;;;;;;1.13;1.10;;;;;;;18.93;67.01;97502.94;4970408;28;20317;-55
2022/05/21 10:22:04;;;;;;;1.57;1.47;;;;;;;19.13;69.53;97499.97;4954089;28;20208;-54
2022/05/21 10:24:42;;;;;;;1.67;1.57;;;;;;;19.45;63.49;97502.31;4967099;28;20210;-57
2022/05/21 10:27:19;;;;;;;1.43;1.37;;;;;;;19.69;67.38;97502.28;4953529;28;20292;-57
2022/05/21 10:30:05;;;;;;;1.40;1.40;;;;;;;19.76;62.51;97486.88;4967674;28;20272;-55
2022/05/21 10:33:04;;;;;;;1.52;1.42;;;;;;;19.50;65.91;97507.81;4951194;28;20488;-56
2022/05/21 10:35:43;;;;;;;1.30;1.30;;;;;;;19.16;63.43;97499.50;4961677;28;20261;-60
2022/05/21 10:38:21;;;;;;;1.97;1.27;;;;;;;19.48;65.59;97499.16;4947486;28;20249;-55
2022/05/21 10:40:54;;;;;;;3.60;1.37;;;;;;;20.01;57.58;97501.13;4975293;28;20773;-53
2022/05/21 10:43:39;;;;;;;1.23;1.23;;;;;;;19.75;64.11;97500.56;4953062;28;20736;-50
2022/05/21 10:46:13;;;;;;;1.47;1.37;;;;;;;19.69;67.48;97496.13;4927455;28;20576;-55
2022/05/21 10:48:52;;;;;;;0.97;0.97;;;;;;;20.19;56.08;97492.88;4954730;28;20228;-57
2022/05/21 10:51:26;;;;;;;2.50;1.13;;;;;;;20.13;58.41;97485.78;4969522;28;20395;-54
2022/05/21 10:54:09;;;;;;;2.10;1.13;;;;;;;19.86;62.39;97497.00;4951141;28;20437;-56
2022/05/21 10:56:46;;;;;;;1.43;1.33;;;;;;;19.70;65.34;97485.16;4967585;28;20320;-54
2022/05/21 10:59:35;;;;;;;1.50;1.20;;;;;;;19.69;59.46;97488.06;4957804;28;20297;-54
2022/05/21 11:02:15;;;;;;;1.37;1.27;;;;;;;19.76;58.41;97478.81;4927178;28;20205;-56
2022/05/21 11:05:10;;;;;;;1.37;1.27;;;;;;;19.65;56.03;97472.41;4955210;28;20752;-55
2022/05/21 11:07:42;;;;;;;1.27;1.23;;;;;;;19.71;57.12;97472.50;4954932;28;20237;-54
2022/05/21 11:10:20;;;;;;;2.10;1.50;;;;;;;19.41;60.21;97476.97;4967778;28;20464;-47
2022/05/21 11:12:55;;;;;;;1.47;1.37;;;;;;;19.12;63.34;97465.28;4965238;28;20355;-53
2022/05/21 11:15:33;;;;;;;1.10;1.10;;;;;;;19.37;58.82;97473.94;4959674;28;20327;-53
2022/05/21 11:18:04;;;;;;;1.33;1.33;;;;;;;19.71;52.21;97473.34;4916776;28;20309;-56
2022/05/21 11:20:35;;;;;;;1.47;1.37;;;;;;;19.74;54.79;97478.25;4967977;28;20773;-53
2022/05/21 11:23:08;;;;;;;1.10;1.10;;;;;;;19.77;57.01;97479.63;4965991;28;20452;-53
2022/05/21 11:25:40;;;;;;;3.93;1.20;;;;;;;19.88;52.58;97472.59;4947776;28;20320;-55
2022/05/21 11:28:19;;;;;;;1.33;1.33;;;;;;;19.78;55.85;97470.50;4968133;28;20210;-55
2022/05/21 11:30:48;;;;;;;1.53;1.10;;;;;;;20.00;54.36;97469.91;4950813;28;20517;-52
2022/05/21 11:38:54;;;;;;;3.70;1.50;;;;;;;20.58;57.66;97453.75;4950745;28;22500;-54
2022/05/21 11:41:27;;;;;;;2.50;2.30;;;;;;;20.64;55.16;97455.47;4968857;28;20229;-56
2022/05/21 11:46:59;;;;;;;2.40;1.63;;;;;;;19.81;49.47;97438.59;4965586;28;20279;-56
2022/05/21 11:49:35;;;;;;;1.17;1.17;;;;;;;19.83;59.83;97443.72;4929848;28;20245;-55
2022/05/21 11:52:42;;;;;;;1.87;1.30;;;;;;;19.94;50.33;97436.72;4953622;28;20628;-53
2022/05/21 11:55:15;;;;;;;1.50;1.40;;;;;;;19.75;53.44;97449.47;4933139;28;20244;-53
2022/05/21 11:57:51;;;;;;;2.13;1.53;;;;;;;20.02;52.42;97430.94;4966004;28;20596;-49
2022/05/21 12:00:42;;;;;;;1.53;1.30;;;;;;;20.00;50.96;97445.72;4958053;28;20306;-52
2022/05/21 12:03:18;;;;;;;1.27;1.20;;;;;;;20.29;48.21;97432.28;4925693;28;20219;-55
2022/05/21 12:06:13;;;;;;;1.43;1.43;;;;;;;20.18;49.69;97444.72;4969050;28;20312;-49
2022/05/21 12:08:46;;;;;;;1.20;1.20;;;;;;;20.37;49.01;97421.94;4952130;28;20220;-50
2022/05/21 12:11:44;;;;;;;1.13;1.13;;;;;;;20.90;47.14;97421.78;4954664;28;20720;-48
2022/05/21 12:14:22;;;;;;;4.73;1.70;;;;;;;20.36;45.75;97424.88;4969611;28;20324;-53
2022/05/21 12:16:54;;;;;;;1.23;1.23;;;;;;;20.43;47.23;97430.91;4953497;28;20210;-50
2022/05/21 12:20:09;;;;;;;1.23;1.13;;;;;;;20.58;47.16;97421.47;4927680;28;20228;-59
2022/05/21 12:22:46;;;;;;;1.10;1.10;;;;;;;20.96;48.29;97422.66;4954393;28;20209;-57
2022/05/21 12:25:56;;;;;;;0.83;0.83;;;;;;;21.52;47.18;97433.44;4944027;28;20822;-57
2022/05/21 12:28:36;;;;;;;1.43;1.33;;;;;;;21.32;42.51;97417.00;4968115;28;20551;-53
2022/05/21 12:31:08;;;;;;;1.73;1.00;;;;;;;21.24;45.84;97423.63;4962432;28;20462;-57
2022/05/21 12:33:41;;;;;;;2.27;1.30;;;;;;;21.58;43.46;97420.84;4968520;28;20676;-54